21 mai 2022

Temps Code Temps Temp. Vue Des nuages Vent METAR/SPECI
20:00
V
17 °C 48 km - 140°   140° 6 kt METAR CYYJ 220300Z 14006KT 30SM FEW055TCU FEW100 FEW250 17/04 A3018 RMK TCU1AC1CI1 AC TR CI TR SLP224
19:00
V
16 °C 48 km - 130°   130° 6 kt METAR CYYJ 220200Z 13006KT 30SM FEW030TCU FEW050 16/04 A3018 RMK TCU1SC1 TCU TR SC TR SLP222
18:00
V
17 °C 48 km - 130°   130° 8 kt METAR CYYJ 220100Z 13008KT 30SM FEW030TCU FEW050 17/05 A3018 RMK TCU1SC1 SC TR SLP221 DENSITY ALT 100FT
17:00
V
18 °C 48 km - 130°   130° 6 kt METAR CYYJ 220000Z 13006KT 30SM FEW030TCU FEW055 18/05 A3019 RMK TCU1SC1 SC TR SLP225 DENSITY ALT 200FT
16:00
V
18 °C 48 km - 090°   090° 4 kt METAR CYYJ 212300Z 09004KT 040V110 30SM FEW030TCU FEW070 18/02 A3019 RMK TCU1AC1 AC TR SLP227 DENSITY ALT 200FT
15:00
V
18 °C 48 km - 130°   130° 3 kt METAR CYYJ 212200Z 13003KT 010V170 30SM FEW030TCU 18/07 A3020 RMK TCU1 SLP230 DENSITY ALT 200FT
14:00
V
17 °C 48 km - 100°   100° 5 kt METAR CYYJ 212100Z 10005KT 30SM FEW030TCU 17/08 A3021 RMK TCU1 SLP233
13:00
V
16 °C 48 km - 070°   070° 4 kt METAR CYYJ 212000Z 07004KT 010V120 30SM FEW033TCU 16/07 A3023 RMK TCU1 SLP239
12:00
V
16 °C 48 km - 010°   010° 3 kt METAR CYYJ 211900Z 01003KT 340V090 30SM FEW030TCU 16/06 A3023 RMK TCU1 SLP239
11:00
V
15 °C 48 km - 080°   080° 7 kt METAR CYYJ 211800Z 08007KT 30SM FEW030 15/07 A3023 RMK CU1 CU TR SLP240
10:00
V
13 °C 48 km - 080°   080° 3 kt METAR CYYJ 211700Z 08003KT 050V180 30SM FEW030 13/09 A3023 RMK SC1 SC TR SLP241
09:00
V
13 °C 48 km - Var   Var 4 kt METAR CYYJ 211600Z VRB04KT 30SM SKC 13/08 A3024 RMK SLP242
08:00
V
10 °C 48 km - 280°   280° 4 kt METAR CYYJ 211500Z 28004KT 30SM SKC 10/08 A3023 RMK SLP241
07:00
V
9 °C 48 km - 280°   280° 5 kt METAR CYYJ 211400Z 28005KT 30SM FEW075 09/09 A3023 RMK AC1 AC TR SLP238
06:00
V
7 °C 48 km - 290°   290° 5 kt METAR CYYJ 211300Z 29005KT 30SM FEW075 07/07 A3021 RMK AC1 AC TR SLP234
05:00
V
7 °C 48 km - 310°   310° 5 kt METAR CYYJ 211200Z 31005KT 260V330 30SM FEW075 07/07 A3020 RMK AC1 AC TR SLP230
04:00
V
8 °C 32 km - 290°   290° 5 kt METAR CYYJ 211100Z 29005KT 20SM FEW090 08/08 A3020 RMK AC1 SLP228
03:00
V
8 °C 32 km - 250°   250° 5 kt METAR CYYJ 211000Z 25005KT 20SM FEW090 08/08 A3020 RMK AC1 SLP228
02:00
V
8 °C 32 km - 260°   260° 6 kt METAR CYYJ 210900Z 26006KT 20SM SKC 08/08 A3019 RMK SLP227
01:00
V
8 °C 32 km - 260°   260° 6 kt METAR CYYJ 210800Z 26006KT 20SM SKC 08/08 A3020 RMK SLP228
00:00
V
10 °C 32 km - Var   000° 0 kt METAR CYYJ 210700Z 00000KT 20SM FEW094 10/09 A3020 RMK AC2 SLP230

20 mai 2022

Temps Code Temps Temp. Vue Des nuages Vent METAR/SPECI
23:00
V
10 °C 32 km - 300°   300° 4 kt METAR CYYJ 210600Z 30004KT 20SM SKC 10/09 A3019 RMK SLP225
22:00
V
11 °C 32 km - Var   000° 0 kt METAR CYYJ 210500Z 00000KT 20SM FEW075 11/08 A3019 RMK AC1 AC TR SLP225
21:00
V
11 °C 48 km - 080°   080° 4 kt METAR CYYJ 210400Z 08004KT 30SM FEW035TCU FEW075 11/07 A3017 RMK TCU1AC1 TCU TR AC TR TCU SE SLP220
20:00
V
13 °C 48 km - 030°   030° 4 kt METAR CYYJ 210300Z 03004KT 30SM FEW035TCU FEW075 13/08 A3017 RMK TCU1AC1 TCU TR AC TR SLP218
19:00
V
14 °C 48 km - 100°   100° 5 kt METAR CYYJ 210200Z 10005KT 30SM FEW035TCU FEW070 14/08 A3016 RMK TCU1AC1 AC TR SLP217
18:00
V
15 °C 48 km - 090°   090° 8 kt METAR CYYJ 210100Z 09008KT 30SM FEW035TCU 15/07 A3017 RMK TCU1 SLP218
17:00
V
16 °C 48 km - 110°   110° 5 kt METAR CYYJ 210000Z 11005KT 070V140 30SM FEW030TCU 16/08 A3018 RMK TCU1 SLP221
16:00
V
15 °C 48 km - 120°   120° 10 kt METAR CYYJ 202300Z 12010KT 30SM FEW030TCU 15/07 A3019 RMK TCU1 SLP227
15:00
V
15 °C 48 km - 120°   120° 6 kt METAR CYYJ 202200Z 12006KT 30SM FEW030TCU 15/10 A3022 RMK TCU1 SLP235
14:00
V
15 °C 48 km - 100°   100° 6 kt METAR CYYJ 202100Z 10006KT 30SM FEW033 15/08 A3023 RMK CU1 SLP240
13:00
V
14 °C 48 km - 080°   080° 6 kt METAR CYYJ 202000Z 08006KT 050V130 30SM FEW030 14/07 A3024 RMK CU1 SLP243
12:00
V
14 °C 48 km - 060°   060° 6 kt METAR CYYJ 201900Z 06006KT 020V090 30SM FEW030 14/07 A3025 RMK CU1 SLP246
11:00
V
13 °C 48 km - 060°   060° 8 kt METAR CYYJ 201800Z 06008KT 30SM FEW028 13/07 A3026 RMK CU2 SLP250
10:00
V
12 °C 48 km - 280°   280° 3 kt METAR CYYJ 201700Z 28003KT 210V310 30SM FEW027 FEW038 FEW120 12/06 A3027 RMK CU2SC1AC1 SC TR AC TR SLP253
09:00
V
11 °C 48 km - 290°   290° 6 kt METAR CYYJ 201600Z 29006KT 30SM FEW035 FEW120 11/07 A3028 RMK SC1AC1 SC TR AC TR SLP257
08:00
V
9 °C 48 km - 290°   290° 6 kt METAR CYYJ 201500Z 29006KT 30SM FEW120 09/06 A3029 RMK AC1 SLP259
07:00
V
8 °C 48 km - 260°   260° 4 kt METAR CYYJ 201400Z 26004KT 30SM FEW090 08/07 A3028 RMK AC1 AC TR SLP255
06:00
V
5 °C 48 km - 240°   240° 5 kt METAR CYYJ 201300Z 24005KT 30SM FEW090 05/05 A3027 RMK AC1 AC TR SLP253
05:00
V
6 °C 48 km - 280°   280° 5 kt METAR CYYJ 201200Z 28005KT 30SM FEW089 06/06 A3026 RMK AC1 SLP251
04:00
V
7 °C 32 km - 280°   280° 6 kt METAR CYYJ 201100Z 28006KT 20SM FEW091 07/06 A3026 RMK AC2 SLP251
03:00
V
8 °C 32 km - 280°   280° 8 kt METAR CYYJ 201000Z 28008KT 20SM SKC 08/07 A3026 RMK SLP251
02:00
V
8 °C 32 km - 290°   290° 10 kt METAR CYYJ 200900Z 29010KT 20SM SKC 08/06 A3026 RMK SLP250
01:00
V
9 °C 32 km - 280°   280° 7 kt METAR CYYJ 200800Z 28007KT 20SM SKC 09/07 A3026 RMK SLP249
00:00
V
9 °C 32 km - 280°   280° 7 kt METAR CYYJ 200700Z 28007KT 20SM SKC 09/07 A3025 RMK SLP247

19 mai 2022

Temps Code Temps Temp. Vue Des nuages Vent METAR/SPECI
23:00
V
7 °C 32 km - 290°   290° 4 kt METAR CYYJ 200600Z 29004KT 20SM SKC 07/06 A3024 RMK SLP244
22:00
V
8 °C 48 km - 230°   230° 4 kt METAR CYYJ 200500Z 23004KT 30SM SKC 08/07 A3024 RMK SLP242
21:00
V
11 °C 48 km - Var   Var 2 kt METAR CYYJ 200400Z VRB02KT 30SM FEW075 11/03 A3023 RMK AC1 AC TR SLP238
20:00
V
13 °C 48 km - Var   Var 2 kt METAR CYYJ 200300Z VRB02KT 30SM FEW030 FEW075 13/03 A3022 RMK CU1AC1 CU TR AC TR SLP236
19:00
V
14 °C 48 km - 120°   120° 6 kt METAR CYYJ 200200Z 12006KT 080V160 30SM FEW030 SCT058 SCT070 14/03 A3021 RMK CU1SC3AC1 CU TR AC TR SLP234
18:00
V
13 °C 48 km 6.400 ft Var   Var 2 kt METAR CYYJ 200100Z VRB02KT 30SM FEW030 BKN064 BKN075 13/04 A3022 RMK CU1SC4AC1 AC TR SLP236
17:00
V
13 °C 48 km 5.700 ft 110°   110° 6 kt METAR CYYJ 200000Z 11006KT 070V140 30SM FEW030 BKN057 BKN070 13/04 A3022 RMK CU1SC4AC1 SLP235
Données plus anciennes

Télécharge notre application

Un accès facile à toute la météo aéronautique sur ton téléphone portable et ta tablette.
Avec de nombreuses fonctionnalités non disponibles sur le site Web, comme la prise en charge hors ligne et une liste personnelle d'aéroports.

Nous et des tiers suivons ton comportement sur Internet sur notre site Web à l'aide de cookies. Si tu continues, nous supposons que tu acceptes notre politique en matière de cookies. Apprendre plus